Time;durP1;ratioP1;P1;durP2;ratioP2;P2;SDS_P1;SDS_P2;PMS_P1;PMS_P2;Temp;Humidity;BMP_temperature;BMP_pressure;BME280_temperature;BME280_humidity;BME280_pressure;Samples;Min_cycle;Max_cycle;Signal;HPM_P1;HPM_P2
2024/04/22 00:02:19;;;;;;;1.98;1.60;;;10.30;71.30;;;;;;5329204;26;110480;-48
2024/04/22 00:04:45;;;;;;;2.92;1.05;;;10.50;73.50;;;;;;5330123;26;110586;-53
2024/04/22 00:07:11;;;;;;;2.22;0.80;;;10.50;66.30;;;;;;5330121;26;110607;-49
2024/04/22 00:09:38;;;;;;;2.90;1.10;;;10.60;63.70;;;;;;5329286;26;111186;-48
2024/04/22 00:12:04;;;;;;;3.38;1.40;;;10.40;69.70;;;;;;5329188;26;113191;-49
2024/04/22 00:14:29;;;;;;;2.97;1.27;;;10.30;73.30;;;;;;5330122;26;110913;-48
2024/04/22 00:16:55;;;;;;;1.27;0.70;;;10.10;72.40;;;;;;5330427;26;110565;-48
2024/04/22 00:19:21;;;;;;;1.77;1.10;;;10.10;68.70;;;;;;5328272;26;112347;-48
2024/04/22 00:21:46;;;;;;;4.22;1.20;;;10.30;73.80;;;;;;5329278;26;111884;-48
2024/04/22 00:24:12;;;;;;;2.78;1.40;;;10.10;73.40;;;;;;5330058;26;110552;-48
2024/04/22 00:26:38;;;;;;;3.00;1.15;;;10.00;72.40;;;;;;5330849;26;110592;-48
2024/04/22 00:29:04;;;;;;;1.95;1.10;;;10.10;71.50;;;;;;5328728;26;111912;-49
2024/04/22 00:31:29;;;;;;;1.40;1.00;;;10.30;72.80;;;;;;5328950;26;110974;-49
2024/04/22 00:33:55;;;;;;;2.25;1.00;;;10.30;71.70;;;;;;5329905;26;110630;-48
2024/04/22 00:36:21;;;;;;;1.10;0.90;;;10.30;71.40;;;;;;5330209;26;110635;-50
2024/04/22 00:38:46;;;;;;;1.05;0.77;;;10.40;71.50;;;;;;5327352;26;112683;-48
2024/04/22 00:41:12;;;;;;;2.13;0.80;;;10.30;68.40;;;;;;5328750;26;110849;-52
2024/04/22 00:43:38;;;;;;;0.90;0.80;;;10.30;69.70;;;;;;5329623;26;110322;-49
2024/04/22 00:46:05;;;;;;;2.15;0.80;;;10.30;71.30;;;;;;5329865;26;110551;-49
2024/04/22 00:48:30;;;;;;;0.93;0.93;;;10.30;71.60;;;;;;5328880;26;111309;-48
2024/04/22 00:50:57;;;;;;;3.28;0.88;;;10.30;70.60;;;;;;5328947;26;110382;-49
2024/04/22 00:53:25;;;;;;;0.93;0.80;;;10.30;71.10;;;;;;5329869;26;110494;-52
2024/04/22 00:55:52;;;;;;;0.82;0.70;;;10.30;69.40;;;;;;5329515;26;110846;-49
2024/04/22 00:58:19;;;;;;;1.60;0.90;;;10.40;69.80;;;;;;5328688;26;111076;-49
2024/04/22 01:00:47;;;;;;;1.10;1.00;;;10.30;69.40;;;;;;5328497;26;111531;-50
2024/04/22 01:03:14;;;;;;;1.02;0.73;;;10.30;69.50;;;;;;5328116;26;110987;-48
2024/04/22 01:05:40;;;;;;;1.02;0.80;;;10.30;67.80;;;;;;5329836;26;110496;-49
2024/04/22 01:08:06;;;;;;;1.10;0.88;;;10.40;67.60;;;;;;5328753;26;112410;-48
2024/04/22 01:10:32;;;;;;;1.65;0.90;;;10.40;65.30;;;;;;5328819;26;111789;-48
2024/04/22 01:12:59;;;;;;;1.60;0.80;;;10.40;67.40;;;;;;5327423;26;110629;-48
2024/04/22 01:15:24;;;;;;;0.98;0.80;;;10.40;66.70;;;;;;5329878;26;110442;-50
2024/04/22 01:17:50;;;;;;;0.70;0.68;;;10.40;64.70;;;;;;5328351;26;112681;-48
2024/04/22 01:20:17;;;;;;;1.75;0.82;;;10.50;63.70;;;;;;5328277;26;110902;-48
2024/04/22 01:22:43;;;;;;;1.55;0.70;;;10.40;64.90;;;;;;5329190;26;111126;-48
2024/04/22 01:25:09;;;;;;;0.75;0.75;;;10.40;68.10;;;;;;5329781;26;110885;-48
2024/04/22 01:27:35;;;;;;;2.95;1.00;;;10.30;69.50;;;;;;5329000;26;111122;-50
2024/04/22 01:30:03;;;;;;;1.55;0.90;;;10.30;69.30;;;;;;5326293;26;111496;-48
2024/04/22 01:32:29;;;;;;;0.73;0.60;;;10.20;69.00;;;;;;5329376;26;110587;-48
2024/04/22 01:35:03;;;;;;;0.70;0.70;;;10.30;69.60;;;;;;5327483;26;110936;-48
2024/04/22 01:37:29;;;;;;;1.95;0.90;;;10.30;68.70;;;;;;5328576;26;112331;-48
2024/04/22 01:39:55;;;;;;;1.23;1.02;;;10.40;67.80;;;;;;5328001;26;110905;-48
2024/04/22 01:42:22;;;;;;;1.33;1.10;;;10.50;65.50;;;;;;5329166;26;110471;-48
2024/04/22 01:44:47;;;;;;;2.15;0.80;;;10.50;65.60;;;;;;5328924;26;111096;-48
2024/04/22 01:47:13;;;;;;;1.05;0.90;;;10.50;65.40;;;;;;5327928;26;111652;-49
2024/04/22 01:49:39;;;;;;;1.52;0.90;;;10.40;65.40;;;;;;5328195;26;111701;-50
2024/04/22 01:52:05;;;;;;;0.77;0.77;;;10.40;63.90;;;;;;5328789;26;110743;-48
2024/04/22 01:54:31;;;;;;;1.20;0.95;;;10.60;62.00;;;;;;5329206;26;110477;-49
2024/04/22 01:56:58;;;;;;;1.77;1.10;;;10.60;60.90;;;;;;5327882;26;111646;-48
2024/04/22 01:59:24;;;;;;;2.78;1.10;;;10.30;62.40;;;;;;5327763;26;111447;-49
2024/04/22 02:01:49;;;;;;;2.28;1.08;;;10.00;66.70;;;;;;5329056;26;110777;-49
2024/04/22 02:04:15;;;;;;;2.55;1.13;;;9.90;68.20;;;;;;5328958;26;110560;-50
2024/04/22 02:06:41;;;;;;;1.13;0.88;;;9.70;69.90;;;;;;5327867;26;112426;-52
2024/04/22 02:09:07;;;;;;;1.27;1.15;;;9.50;70.80;;;;;;5327332;26;111609;-50
2024/04/22 02:11:33;;;;;;;3.03;1.10;;;9.40;71.40;;;;;;5328749;26;110923;-49
2024/04/22 02:13:58;;;;;;;3.15;1.58;;;9.30;72.40;;;;;;5328545;26;110599;-54
2024/04/22 02:16:24;;;;;;;3.42;1.20;;;9.40;73.30;;;;;;5327577;26;111116;-51
2024/04/22 02:18:57;;;;;;;2.97;1.50;;;9.50;70.20;;;;;;5327546;26;111566;-48
2024/04/22 02:21:26;;;;;;;2.08;1.30;;;9.60;72.10;;;;;;5328356;26;110631;-51
2024/04/22 02:23:53;;;;;;;2.92;1.38;;;9.50;72.00;;;;;;5328483;26;110671;-54
2024/04/22 02:26:18;;;;;;;3.83;1.20;;;9.50;72.50;;;;;;5327642;26;111042;-49
2024/04/22 02:28:44;;;;;;;1.55;1.20;;;9.30;71.20;;;;;;5327139;26;110633;-49
2024/04/22 02:31:09;;;;;;;2.70;1.20;;;9.40;69.60;;;;;;5328120;26;110854;-51
2024/04/22 02:33:35;;;;;;;1.25;1.00;;;9.50;71.80;;;;;;5332047;26;110767;-49
2024/04/22 02:36:01;;;;;;;1.88;1.40;;;9.40;72.60;;;;;;5326982;26;113162;-49
2024/04/22 02:38:26;;;;;;;2.22;1.40;;;9.40;73.30;;;;;;5324748;26;110484;-54
2024/04/22 02:40:53;;;;;;;2.00;1.30;;;9.10;72.30;;;;;;5321350;26;111465;-49
2024/04/22 02:43:19;;;;;;;1.70;1.05;;;9.20;74.90;;;;;;5320860;26;110916;-49
2024/04/22 02:45:45;;;;;;;1.73;1.30;;;9.30;73.70;;;;;;5315364;26;111472;-51
2024/04/22 02:48:10;;;;;;;1.83;1.50;;;9.30;76.70;;;;;;5329962;26;110597;-50
2024/04/22 02:50:36;;;;;;;1.67;1.58;;;9.30;78.20;;;;;;5330937;26;110403;-51
2024/04/22 02:53:02;;;;;;;1.60;1.50;;;9.20;79.10;;;;;;5331142;26;110941;-49
2024/04/22 02:55:29;;;;;;;2.60;1.50;;;9.30;78.30;;;;;;5329811;26;112262;-48
2024/04/22 02:57:59;;;;;;;2.42;1.45;;;9.30;78.50;;;;;;5329815;26;112357;-50
2024/04/22 03:00:25;;;;;;;3.55;1.70;;;9.30;76.90;;;;;;5330627;26;110527;-48
2024/04/22 03:02:51;;;;;;;3.60;1.48;;;9.10;78.20;;;;;;5331144;26;110516;-49
2024/04/22 03:05:17;;;;;;;1.45;1.35;;;9.20;77.60;;;;;;5329915;26;111557;-48
2024/04/22 03:07:43;;;;;;;1.88;1.58;;;9.10;78.10;;;;;;5329979;26;111561;-52
2024/04/22 03:10:09;;;;;;;1.60;1.30;;;9.30;77.70;;;;;;5329007;26;110576;-50
2024/04/22 03:12:35;;;;;;;1.50;1.40;;;9.20;78.60;;;;;;5330807;26;110673;-48
2024/04/22 03:15:01;;;;;;;2.80;1.45;;;9.30;78.90;;;;;;5330019;26;112943;-49
2024/04/22 03:17:27;;;;;;;1.67;1.40;;;9.20;79.30;;;;;;5329810;26;111580;-49
2024/04/22 03:19:53;;;;;;;1.60;1.30;;;9.20;79.30;;;;;;5330839;26;110717;-51
2024/04/22 03:22:19;;;;;;;1.70;1.45;;;9.30;78.60;;;;;;5330462;26;110842;-50
2024/04/22 03:24:45;;;;;;;2.38;1.65;;;9.30;78.00;;;;;;5329666;26;111179;-49
2024/04/22 03:27:11;;;;;;;3.22;2.00;;;9.40;78.30;;;;;;5330199;26;111569;-50
2024/04/22 03:29:37;;;;;;;1.40;1.30;;;9.40;78.50;;;;;;5330329;26;110897;-53
2024/04/22 03:32:04;;;;;;;2.55;1.73;;;9.30;78.20;;;;;;5328998;26;110654;-49
2024/04/22 03:34:29;;;;;;;1.73;1.63;;;9.20;79.90;;;;;;5329422;26;112429;-48
2024/04/22 03:36:55;;;;;;;1.70;1.60;;;9.20;79.70;;;;;;5329938;26;110430;-48
2024/04/22 03:39:20;;;;;;;3.83;2.00;;;9.10;78.60;;;;;;5330435;26;110483;-48
2024/04/22 03:41:46;;;;;;;1.90;1.80;;;9.10;80.00;;;;;;5330878;26;110685;-48
2024/04/22 03:44:12;;;;;;;2.75;2.10;;;9.10;80.00;;;;;;5329632;26;112670;-48
2024/04/22 03:52:06;;;;;;;2.80;2.25;;;9.20;81.50;;;;;;5330234;26;111459;-48
2024/04/22 03:54:32;;;;;;;2.05;1.85;;;9.20;80.00;;;;;;5326940;26;114061;-48
2024/04/22 03:56:57;;;;;;;2.10;1.90;;;9.20;81.10;;;;;;5329137;26;110471;-48
2024/04/22 03:59:23;;;;;;;2.13;2.00;;;9.30;80.90;;;;;;5330279;26;110965;-48
2024/04/22 04:01:49;;;;;;;2.33;2.13;;;9.30;80.10;;;;;;5330680;26;110814;-48
2024/04/22 04:04:14;;;;;;;3.78;2.15;;;9.20;80.90;;;;;;5329238;26;112402;-47
2024/04/22 04:06:40;;;;;;;2.45;2.20;;;9.30;81.00;;;;;;5329317;26;110476;-50
2024/04/22 04:09:06;;;;;;;2.08;1.90;;;9.30;81.00;;;;;;5330073;26;110829;-48
2024/04/22 04:11:37;;;;;;;2.55;2.20;;;9.30;80.40;;;;;;5330368;26;110721;-47
2024/04/22 04:14:03;;;;;;;2.65;1.90;;;9.40;80.10;;;;;;5328947;26;111344;-48
2024/04/22 04:16:29;;;;;;;3.05;2.65;;;9.30;79.60;;;;;;5329316;26;110420;-50
2024/04/22 04:18:55;;;;;;;2.90;2.60;;;9.30;80.30;;;;;;5329938;26;111054;-48
2024/04/22 04:21:20;;;;;;;2.20;1.98;;;9.20;79.80;;;;;;5330365;26;110588;-48
2024/04/22 04:23:46;;;;;;;2.58;2.00;;;9.30;78.70;;;;;;5327391;26;111575;-50
2024/04/22 04:26:12;;;;;;;2.83;2.17;;;9.20;79.60;;;;;;5345667;21;111709;-53
2024/04/22 04:28:37;;;;;;;3.45;2.63;;;9.20;78.90;;;;;;5295220;26;110804;-56
2024/04/22 04:31:03;;;;;;;2.90;2.42;;;9.30;78.10;;;;;;5297340;26;110725;-56
2024/04/22 04:33:29;;;;;;;2.88;2.50;;;9.10;77.70;;;;;;5296115;26;111704;-56
2024/04/22 04:36:02;;;;;;;3.03;2.35;;;9.20;77.00;;;;;;5295772;26;111531;-56
2024/04/22 04:38:28;;;;;;;2.55;2.15;;;9.30;77.00;;;;;;5297397;26;113491;-56
2024/04/22 04:40:54;;;;;;;2.40;2.08;;;9.30;75.80;;;;;;5297491;26;110500;-55
2024/04/22 04:43:19;;;;;;;3.22;2.40;;;9.30;76.00;;;;;;5295880;26;110977;-56
2024/04/22 04:45:45;;;;;;;3.42;2.30;;;9.40;75.80;;;;;;5296173;26;110596;-56
2024/04/22 04:48:11;;;;;;;2.83;2.20;;;9.30;75.20;;;;;;5296845;26;110705;-56
2024/04/22 04:50:37;;;;;;;2.88;2.40;;;9.30;74.00;;;;;;5297095;26;110767;-57
2024/04/22 04:53:02;;;;;;;2.47;2.28;;;9.30;73.50;;;;;;5296234;26;111712;-56
2024/04/22 04:55:28;;;;;;;2.75;2.30;;;9.40;73.70;;;;;;5295891;26;111032;-56
2024/04/22 04:57:54;;;;;;;2.30;2.10;;;9.50;72.30;;;;;;5297016;26;110552;-56
2024/04/22 05:00:19;;;;;;;5.88;2.83;;;9.40;71.60;;;;;;5296686;26;110499;-56
2024/04/22 05:02:45;;;;;;;3.28;2.28;;;9.50;71.70;;;;;;5295905;26;112937;-56
2024/04/22 05:05:11;;;;;;;2.70;2.50;;;9.70;69.90;;;;;;5295909;26;110344;-56
2024/04/22 05:07:37;;;;;;;5.03;2.30;;;9.80;69.40;;;;;;5296592;26;110778;-56
2024/04/22 05:10:03;;;;;;;4.82;2.80;;;9.80;68.20;;;;;;5297126;26;110647;-55
2024/04/22 05:12:29;;;;;;;2.38;2.17;;;9.70;68.10;;;;;;5271099;26;113746;-54
2024/04/22 05:14:54;;;;;;;3.38;2.47;;;9.70;67.70;;;;;;5295790;26;112725;-57
2024/04/22 05:17:20;;;;;;;3.95;2.70;;;9.50;67.40;;;;;;5296758;26;110355;-57
2024/04/22 05:19:46;;;;;;;3.25;2.38;;;9.60;67.70;;;;;;5297126;26;110617;-56
2024/04/22 05:22:11;;;;;;;2.70;2.30;;;9.60;67.80;;;;;;5293926;26;112436;-56
2024/04/22 05:24:37;;;;;;;2.72;2.20;;;9.80;66.90;;;;;;5295205;26;111479;-56
2024/04/22 05:27:03;;;;;;;2.60;2.33;;;9.80;66.40;;;;;;5308955;26;110612;-56
2024/04/22 05:29:29;;;;;;;3.67;2.45;;;9.90;65.80;;;;;;5331357;26;110506;-56
2024/04/22 05:31:55;;;;;;;2.60;2.40;;;9.80;65.60;;;;;;5330589;26;113072;-56
2024/04/22 05:37:06;;;;;;;2.97;2.15;;;9.80;64.70;;;;;;5331624;26;111147;-56
2024/04/22 05:39:31;;;;;;;3.20;2.90;;;9.90;64.20;;;;;;5331412;26;110885;-56
2024/04/22 05:41:57;;;;;;;2.60;2.40;;;9.90;64.20;;;;;;5330680;26;111588;-56
2024/04/22 05:44:23;;;;;;;3.53;2.63;;;9.90;64.70;;;;;;5330159;26;110791;-56
2024/04/22 05:46:49;;;;;;;2.92;2.47;;;9.90;63.80;;;;;;5330983;26;110768;-56
2024/04/22 05:49:14;;;;;;;3.92;2.70;;;10.00;63.20;;;;;;5331283;26;110589;-56
2024/04/22 05:51:40;;;;;;;2.88;2.22;;;10.00;62.20;;;;;;5329963;26;112422;-56
2024/04/22 05:54:08;;;;;;;3.13;2.70;;;9.90;62.70;;;;;;5330166;26;111795;-56
2024/04/22 05:56:37;;;;;;;6.20;3.13;;;10.00;63.20;;;;;;5330851;26;110636;-56
2024/04/22 05:59:04;;;;;;;5.70;2.95;;;10.10;61.90;;;;;;5331148;26;111001;-55
2024/04/22 06:01:30;;;;;;;3.00;2.70;;;10.10;61.60;;;;;;5329136;26;111056;-56
2024/04/22 06:03:56;;;;;;;3.78;2.72;;;10.20;61.50;;;;;;5329579;26;112477;-56
2024/04/22 06:06:21;;;;;;;4.50;2.97;;;10.10;61.70;;;;;;5330983;26;110586;-56
2024/04/22 06:08:47;;;;;;;6.28;4.43;;;10.20;61.50;;;;;;5330601;26;111033;-56
2024/04/22 06:11:13;;;;;;;6.05;3.65;;;10.20;60.90;;;;;;5329234;26;111468;-56
2024/04/22 06:13:39;;;;;;;7.28;2.88;;;10.20;60.50;;;;;;5329635;26;111759;-56
2024/04/22 06:16:06;;;;;;;5.07;3.50;;;10.30;60.10;;;;;;5330778;26;110711;-56
2024/04/22 06:18:31;;;;;;;6.93;4.07;;;10.30;59.90;;;;;;5333720;26;110529;-56
2024/04/22 06:20:57;;;;;;;17.13;8.52;;;10.30;60.60;;;;;;5332482;26;112620;-56
2024/04/22 06:23:22;;;;;;;8.10;4.50;;;10.30;60.40;;;;;;5332168;26;111574;-55
2024/04/22 06:25:48;;;;;;;13.18;7.60;;;10.30;60.80;;;;;;5330067;26;111900;-56
2024/04/22 06:28:14;;;;;;;11.27;6.78;;;10.40;60.20;;;;;;5310369;26;110744;-56
2024/04/22 06:30:39;;;;;;;7.57;4.72;;;10.40;59.40;;;;;;5332441;26;112327;-55
2024/04/22 06:33:05;;;;;;;11.45;7.65;;;10.60;59.40;;;;;;5332212;26;111653;-55
2024/04/22 06:35:31;;;;;;;8.07;4.93;;;10.60;59.70;;;;;;5331815;26;110491;-55
2024/04/22 06:37:56;;;;;;;5.72;3.90;;;10.60;59.30;;;;;;5332026;26;111108;-56
2024/04/22 06:40:22;;;;;;;5.88;3.10;;;10.60;59.10;;;;;;5331050;26;111004;-55
2024/04/22 06:42:48;;;;;;;5.05;3.00;;;10.60;58.90;;;;;;5331702;26;111068;-55
2024/04/22 06:45:14;;;;;;;3.42;2.97;;;10.70;58.80;;;;;;5332696;26;110420;-56
2024/04/22 06:47:40;;;;;;;3.10;2.80;;;10.80;59.80;;;;;;5332976;26;110814;-55
2024/04/22 06:50:05;;;;;;;5.75;3.42;;;10.90;60.00;;;;;;5332095;26;111319;-55
2024/04/22 06:52:31;;;;;;;5.32;3.38;;;11.10;59.50;;;;;;5332393;26;110571;-55
2024/04/22 06:54:57;;;;;;;4.45;3.08;;;11.10;58.60;;;;;;5333395;26;110512;-55
2024/04/22 06:57:22;;;;;;;5.88;3.75;;;11.20;58.10;;;;;;5333204;26;110695;-55
2024/04/22 06:59:48;;;;;;;4.90;3.85;;;11.40;57.60;;;;;;5332427;26;111307;-55
2024/04/22 07:02:14;;;;;;;17.38;9.70;;;11.40;56.70;;;;;;5331744;26;112345;-55
2024/04/22 07:04:40;;;;;;;18.80;11.65;;;11.60;56.00;;;;;;5333163;26;110440;-55
2024/04/22 07:07:05;;;;;;;8.40;6.03;;;11.70;56.90;;;;;;5332381;26;110695;-55
2024/04/22 07:09:31;;;;;;;5.75;4.32;;;11.80;56.50;;;;;;5332132;26;112391;-55
2024/04/22 07:11:56;;;;;;;5.43;3.65;;;11.90;56.90;;;;;;5332130;26;110343;-55
2024/04/22 07:14:22;;;;;;;7.05;3.83;;;12.10;55.10;;;;;;5332784;26;110499;-56
2024/04/22 07:16:56;;;;;;;5.25;4.00;;;12.30;54.70;;;;;;5333317;26;110642;-56
2024/04/22 07:19:22;;;;;;;3.90;3.50;;;12.30;53.60;;;;;;5332184;26;112384;-55
2024/04/22 07:21:48;;;;;;;6.10;3.47;;;12.40;53.40;;;;;;5332090;26;110448;-55
2024/04/22 07:24:13;;;;;;;6.38;4.10;;;12.30;53.10;;;;;;5332482;26;110511;-55
2024/04/22 07:26:39;;;;;;;4.88;3.67;;;12.60;52.50;;;;;;5333425;26;111003;-55
2024/04/22 07:29:05;;;;;;;4.20;3.80;;;12.60;51.10;;;;;;5330441;26;112389;-55
2024/04/22 07:31:34;;;;;;;3.88;3.47;;;12.90;51.90;;;;;;5331894;26;112898;-55
2024/04/22 07:34:00;;;;;;;6.32;3.72;;;13.10;51.00;;;;;;5332795;26;110948;-56
2024/04/22 07:36:36;;;;;;;3.72;3.42;;;13.20;50.90;;;;;;5332921;26;110682;-55
2024/04/22 07:39:04;;;;;;;6.97;3.53;;;13.20;49.90;;;;;;5332218;26;111081;-55
2024/04/22 07:41:30;;;;;;;7.18;3.55;;;13.00;50.50;;;;;;5331705;26;110969;-55
2024/04/22 07:43:57;;;;;;;5.25;3.70;;;13.00;50.10;;;;;;5333266;26;111171;-55
2024/04/22 07:46:23;;;;;;;3.78;3.47;;;12.80;49.30;;;;;;5332776;26;110547;-55
2024/04/22 07:48:50;;;;;;;3.85;3.00;;;12.80;49.30;;;;;;5331921;26;112380;-55
2024/04/22 07:51:15;;;;;;;9.73;4.40;;;12.60;49.20;;;;;;5331393;26;111574;-55
2024/04/22 07:53:41;;;;;;;3.63;3.33;;;12.50;49.20;;;;;;5332217;26;110723;-55
2024/04/22 07:56:17;;;;;;;10.25;5.60;;;12.40;47.80;;;;;;5332749;26;110998;-55
2024/04/22 07:58:44;;;;;;;7.63;5.70;;;12.60;48.30;;;;;;5331339;26;111628;-55
2024/04/22 08:01:11;;;;;;;3.63;3.33;;;12.70;48.10;;;;;;5331569;26;111505;-55
2024/04/22 08:03:37;;;;;;;5.55;4.00;;;12.60;47.20;;;;;;5332564;26;110887;-55
2024/04/22 08:06:05;;;;;;;5.35;3.42;;;12.70;47.00;;;;;;5333018;26;111692;-56
2024/04/22 08:08:33;;;;;;;3.15;2.80;;;12.90;46.80;;;;;;5331641;26;112528;-55
2024/04/22 08:10:59;;;;;;;3.47;3.17;;;12.90;46.40;;;;;;5331457;26;111571;-55
2024/04/22 08:13:25;;;;;;;5.05;3.22;;;12.80;46.50;;;;;;5332377;26;110425;-56
2024/04/22 08:15:50;;;;;;;3.33;3.03;;;12.70;46.60;;;;;;5332327;26;111058;-56
2024/04/22 08:18:17;;;;;;;6.80;3.55;;;12.70;46.60;;;;;;5331422;26;111079;-55
2024/04/22 08:20:42;;;;;;;5.95;4.32;;;12.90;46.70;;;;;;5331528;26;113426;-55
2024/04/22 08:23:08;;;;;;;3.85;3.38;;;12.90;46.20;;;;;;5332313;26;110612;-55
2024/04/22 08:25:34;;;;;;;6.93;4.95;;;12.70;45.90;;;;;;5332687;26;110571;-55
2024/04/22 08:28:00;;;;;;;5.43;4.00;;;13.00;46.60;;;;;;5331342;26;111013;-55
2024/04/22 08:30:27;;;;;;;4.93;3.38;;;13.20;46.30;;;;;;5331334;26;111588;-55
2024/04/22 08:32:53;;;;;;;8.95;4.25;;;13.30;47.10;;;;;;5332131;26;110695;-56
2024/04/22 08:35:19;;;;;;;4.30;3.40;;;13.20;46.40;;;;;;5332419;26;110578;-55
2024/04/22 08:37:44;;;;;;;4.97;3.35;;;13.10;45.40;;;;;;5331316;26;112322;-56
2024/04/22 08:40:10;;;;;;;4.05;3.65;;;13.30;45.50;;;;;;5330564;26;111708;-55
2024/04/22 08:42:39;;;;;;;4.45;3.30;;;13.30;44.70;;;;;;5332121;26;110593;-55
2024/04/22 08:45:06;;;;;;;7.07;3.15;;;13.20;45.00;;;;;;5332405;26;110878;-55
2024/04/22 08:47:32;;;;;;;4.47;3.15;;;13.40;45.80;;;;;;5330834;26;111143;-56
2024/04/22 08:49:58;;;;;;;4.75;2.90;;;13.60;44.30;;;;;;5331012;26;110523;-55
2024/04/22 08:52:24;;;;;;;4.03;3.10;;;13.70;44.60;;;;;;5332147;26;110505;-55
2024/04/22 08:54:50;;;;;;;3.30;3.00;;;13.60;43.40;;;;;;5332325;26;110582;-55
2024/04/22 08:57:16;;;;;;;3.78;2.42;;;13.50;43.00;;;;;;5331144;26;112681;-56
2024/04/22 08:59:42;;;;;;;6.35;3.05;;;13.60;43.30;;;;;;5331172;26;110931;-56
2024/04/22 09:02:07;;;;;;;7.93;3.35;;;13.40;43.70;;;;;;5331638;26;111010;-55
2024/04/22 09:04:33;;;;;;;4.28;3.00;;;13.50;43.40;;;;;;5332175;26;110579;-56
2024/04/22 09:07:14;;;;;;;4.13;2.85;;;13.60;43.10;;;;;;5330665;26;111039;-56
2024/04/22 09:09:44;;;;;;;4.00;3.38;;;13.60;42.90;;;;;;5331165;26;110967;-56
2024/04/22 09:12:16;;;;;;;7.05;2.92;;;13.90;44.20;;;;;;5331655;26;110677;-56
2024/04/22 09:14:41;;;;;;;3.95;2.90;;;13.90;43.00;;;;;;5332313;26;110847;-55
2024/04/22 09:17:07;;;;;;;3.47;3.17;;;13.90;41.90;;;;;;5330862;26;112322;-56
2024/04/22 09:19:33;;;;;;;4.80;2.70;;;13.60;42.20;;;;;;5330654;26;111665;-56
2024/04/22 09:21:59;;;;;;;3.97;2.50;;;13.60;41.70;;;;;;5332042;26;111172;-56
2024/04/22 09:24:25;;;;;;;5.72;2.60;;;14.00;42.20;;;;;;5331885;26;110517;-56
2024/04/22 09:26:51;;;;;;;4.97;3.17;;;13.90;41.70;;;;;;5331004;26;111062;-55
2024/04/22 09:29:19;;;;;;;7.18;5.25;;;13.90;42.30;;;;;;5330219;26;110674;-56
2024/04/22 09:31:47;;;;;;;4.63;3.17;;;14.00;42.20;;;;;;5331803;26;110549;-55
2024/04/22 09:34:13;;;;;;;4.95;3.45;;;13.90;42.20;;;;;;5331453;26;110599;-55
2024/04/22 09:36:40;;;;;;;3.50;3.00;;;13.90;41.80;;;;;;5330534;26;112717;-56
2024/04/22 09:39:07;;;;;;;3.63;3.03;;;13.90;42.80;;;;;;5328930;26;111497;-56
2024/04/22 09:41:35;;;;;;;6.00;3.72;;;13.80;42.80;;;;;;5331148;26;110540;-56
2024/04/22 09:44:02;;;;;;;6.05;3.28;;;13.80;43.70;;;;;;5331623;26;111120;-55
2024/04/22 09:46:30;;;;;;;8.35;4.68;;;13.90;43.50;;;;;;5330344;26;112397;-55
2024/04/22 09:48:57;;;;;;;4.88;3.35;;;13.70;42.90;;;;;;5330282;26;110723;-56
2024/04/22 09:51:24;;;;;;;8.50;5.68;;;13.60;44.00;;;;;;5329776;26;110398;-56
2024/04/22 09:53:50;;;;;;;13.95;7.47;;;13.60;43.50;;;;;;5330998;26;110489;-56
2024/04/22 09:56:29;;;;;;;6.13;3.92;;;13.70;43.20;;;;;;5330256;26;111754;-56
2024/04/22 09:58:55;;;;;;;3.85;3.08;;;13.40;43.30;;;;;;5330218;26;113672;-56
2024/04/22 10:01:21;;;;;;;6.35;3.15;;;13.40;44.00;;;;;;5331194;26;110461;-56
2024/04/22 10:03:48;;;;;;;4.95;3.22;;;13.40;43.70;;;;;;5330998;26;110802;-56
2024/04/22 10:06:16;;;;;;;2.92;2.63;;;13.50;43.00;;;;;;5330022;26;110970;-56
2024/04/22 10:08:42;;;;;;;3.30;2.63;;;13.50;43.40;;;;;;5329664;26;110490;-56
2024/04/22 10:11:11;;;;;;;3.10;2.80;;;13.50;44.40;;;;;;5331148;26;110473;-56
2024/04/22 10:13:37;;;;;;;5.53;2.88;;;13.60;43.60;;;;;;5331155;26;110705;-56
2024/04/22 10:16:04;;;;;;;6.13;3.28;;;13.40;43.80;;;;;;5329852;26;111085;-56
2024/04/22 10:18:30;;;;;;;5.43;2.90;;;13.30;43.40;;;;;;5329530;26;111718;-56
2024/04/22 10:21:01;;;;;;;7.47;3.00;;;13.30;44.10;;;;;;5330433;26;110824;-56
2024/04/22 10:23:27;;;;;;;5.18;3.33;;;13.30;44.20;;;;;;5330851;26;110697;-55
2024/04/22 10:25:52;;;;;;;8.10;4.43;;;13.20;43.60;;;;;;5329555;26;112006;-55
2024/04/22 10:28:18;;;;;;;7.15;2.95;;;13.30;44.50;;;;;;5329852;26;111168;-56
2024/04/22 10:30:44;;;;;;;12.02;7.68;;;13.10;43.50;;;;;;5330461;26;110538;-55
2024/04/22 10:33:09;;;;;;;8.43;5.38;;;13.10;44.00;;;;;;5330617;26;110694;-55
2024/04/22 10:35:35;;;;;;;6.28;3.25;;;13.20;44.00;;;;;;5329617;26;112808;-56
2024/04/22 10:38:01;;;;;;;6.35;4.35;;;13.10;43.90;;;;;;5329193;26;113751;-56
2024/04/22 10:40:27;;;;;;;4.75;3.72;;;13.00;44.70;;;;;;5330622;26;110832;-56
2024/04/22 10:42:53;;;;;;;7.32;4.70;;;13.00;44.80;;;;;;5329977;26;110543;-55
2024/04/22 10:45:20;;;;;;;4.78;3.20;;;13.00;44.70;;;;;;5329202;26;112414;-55
2024/04/22 10:47:46;;;;;;;3.20;2.90;;;12.90;44.60;;;;;;5328944;26;112125;-54
2024/04/22 10:50:19;;;;;;;15.23;8.95;;;13.00;44.70;;;;;;5329883;26;110670;-54
2024/04/22 10:52:45;;;;;;;4.13;2.58;;;13.00;45.80;;;;;;5330231;26;110651;-54
2024/04/22 10:55:11;;;;;;;4.47;3.13;;;12.80;43.60;;;;;;5328854;26;111595;-54
2024/04/22 10:57:37;;;;;;;10.25;5.90;;;12.70;43.10;;;;;;5327186;26;111717;-54
2024/04/22 11:00:06;;;;;;;3.15;1.38;;;12.80;42.40;;;;;;5330113;26;110570;-54
2024/04/22 11:02:32;;;;;;;3.60;1.70;;;12.90;42.30;;;;;;5331293;26;110738;-54
2024/04/22 11:05:00;;;;;;;2.30;1.45;;;12.90;43.30;;;;;;5332163;26;111203;-55
2024/04/22 11:07:28;;;;;;;2.35;1.30;;;12.60;44.70;;;;;;5331612;26;110460;-54
2024/04/22 11:09:58;;;;;;;1.65;1.35;;;12.80;44.60;;;;;;5333025;26;110678;-54
2024/04/22 11:12:25;;;;;;;3.20;1.10;;;12.90;44.40;;;;;;5333012;26;110508;-54
2024/04/22 11:14:52;;;;;;;1.30;1.20;;;12.90;43.80;;;;;;5332167;26;111154;-54
2024/04/22 11:17:24;;;;;;;1.40;1.05;;;13.00;44.10;;;;;;5331940;26;110405;-54
2024/04/22 11:19:49;;;;;;;1.60;1.40;;;13.20;43.40;;;;;;5332857;26;110443;-54
2024/04/22 11:22:16;;;;;;;2.50;1.48;;;13.40;42.40;;;;;;5332861;26;110511;-54
2024/04/22 11:24:42;;;;;;;4.05;1.40;;;13.20;43.30;;;;;;5332228;26;111048;-54
2024/04/22 11:27:08;;;;;;;2.10;1.85;;;13.20;42.70;;;;;;5332110;26;111587;-54
2024/04/22 11:29:34;;;;;;;2.60;1.23;;;13.30;43.30;;;;;;5332882;26;111325;-56
2024/04/22 11:32:00;;;;;;;1.90;1.58;;;13.30;43.60;;;;;;5332776;26;110554;-55
2024/04/22 11:34:26;;;;;;;2.25;1.60;;;13.30;42.00;;;;;;5331767;26;112434;-54
2024/04/22 11:36:56;;;;;;;1.60;1.50;;;13.40;41.80;;;;;;5331954;26;111428;-54
2024/04/22 11:39:24;;;;;;;2.00;1.40;;;13.60;42.30;;;;;;5332781;26;110870;-54
2024/04/22 11:41:51;;;;;;;1.42;1.20;;;13.60;41.40;;;;;;5332993;26;110937;-54
2024/04/22 11:44:17;;;;;;;4.53;1.27;;;13.50;41.40;;;;;;5331738;26;112912;-54
2024/04/22 11:46:43;;;;;;;4.93;1.10;;;13.50;40.40;;;;;;5331295;26;110728;-54
2024/04/22 11:49:09;;;;;;;1.35;1.25;;;13.60;41.00;;;;;;5332909;26;110470;-55
2024/04/22 11:51:35;;;;;;;1.42;1.17;;;13.40;42.00;;;;;;5333008;26;110623;-54
2024/04/22 11:54:01;;;;;;;5.50;1.48;;;13.30;42.50;;;;;;5331402;26;112409;-54
2024/04/22 11:56:33;;;;;;;4.45;1.67;;;13.00;42.80;;;;;;5331504;26;110767;-54
2024/04/22 11:58:59;;;;;;;2.78;1.50;;;12.90;43.90;;;;;;5332562;26;110659;-54
2024/04/22 12:01:25;;;;;;;2.38;1.48;;;12.90;44.40;;;;;;5332805;26;110818;-54
2024/04/22 12:03:50;;;;;;;3.60;1.52;;;12.90;43.70;;;;;;5331355;26;112884;-54
2024/04/22 12:06:16;;;;;;;1.70;1.40;;;12.80;45.00;;;;;;5331713;26;111697;-56
2024/04/22 12:08:42;;;;;;;1.98;1.75;;;12.80;44.90;;;;;;5332334;26;110734;-54
2024/04/22 12:11:08;;;;;;;4.32;3.45;;;12.70;45.50;;;;;;5332737;26;110568;-54
2024/04/22 12:13:33;;;;;;;2.92;1.52;;;12.70;45.40;;;;;;5330701;26;112308;-54
2024/04/22 12:15:59;;;;;;;2.47;1.60;;;12.80;45.40;;;;;;5331218;26;110845;-54
2024/04/22 12:18:25;;;;;;;2.13;1.63;;;12.80;45.50;;;;;;5331191;26;110689;-54
2024/04/22 12:20:50;;;;;;;1.73;1.30;;;12.50;47.00;;;;;;5332174;26;110640;-55
2024/04/22 12:23:16;;;;;;;16.45;10.07;;;12.40;47.50;;;;;;5331504;26;112390;-55
2024/04/22 12:25:42;;;;;;;8.63;3.70;;;12.30;48.20;;;;;;5330677;26;110793;-55
2024/04/22 12:28:08;;;;;;;3.97;1.40;;;12.30;50.50;;;;;;5332622;26;110788;-55
2024/04/22 12:30:35;;;;;;;5.50;1.80;;;12.10;50.80;;;;;;5332608;26;111028;-55
2024/04/22 12:33:01;;;;;;;1.50;1.35;;;12.10;49.70;;;;;;5331127;26;111098;-55
2024/04/22 12:35:27;;;;;;;1.67;1.58;;;12.10;49.60;;;;;;5331408;26;111606;-55
2024/04/22 12:37:52;;;;;;;3.53;1.75;;;12.00;50.30;;;;;;5332345;26;110762;-56
2024/04/22 12:40:18;;;;;;;3.42;1.70;;;11.80;51.50;;;;;;5332438;26;110572;-55
2024/04/22 12:42:43;;;;;;;2.55;1.48;;;11.80;53.00;;;;;;5330960;26;112419;-55